createdAt,value
2023-08-18T00:00:25.769Z,95203
2023-08-18T00:03:50.978Z,95207
2023-08-18T00:07:16.112Z,95197
2023-08-18T00:10:41.279Z,95195
2023-08-18T00:14:06.457Z,95192
2023-08-18T00:17:31.876Z,95203
2023-08-18T00:20:56.856Z,95210
2023-08-18T00:24:21.992Z,95221
2023-08-18T00:27:47.176Z,95234
2023-08-18T00:31:12.354Z,95240
2023-08-18T00:34:37.509Z,95237
2023-08-18T00:38:02.708Z,95237
2023-08-18T00:41:27.850Z,95234
2023-08-18T00:44:53.044Z,95230
2023-08-18T00:48:18.233Z,95227
2023-08-18T00:51:43.395Z,95232
2023-08-18T00:55:08.595Z,95230
2023-08-18T00:58:33.748Z,95229
2023-08-18T01:01:58.941Z,95230
2023-08-18T01:05:24.129Z,95230
2023-08-18T01:08:49.322Z,95233
2023-08-18T01:12:14.513Z,95223
2023-08-18T01:15:39.667Z,95231
2023-08-18T01:19:04.829Z,95234
2023-08-18T01:22:29.993Z,95236
2023-08-18T01:25:55.170Z,95238
2023-08-18T01:29:20.390Z,95236
2023-08-18T01:32:45.541Z,95235
2023-08-18T01:36:10.709Z,95240
2023-08-18T01:39:35.882Z,95235
2023-08-18T01:43:01.053Z,95238
2023-08-18T01:46:26.406Z,95241
2023-08-18T01:49:51.373Z,95235
2023-08-18T01:53:16.557Z,95223
2023-08-18T01:56:41.742Z,95225
2023-08-18T02:00:12.230Z,95220
2023-08-18T02:03:32.234Z,95218
2023-08-18T02:06:57.295Z,95219
2023-08-18T02:10:22.481Z,95219
2023-08-18T02:13:47.660Z,95221
2023-08-18T02:17:12.821Z,95213
2023-08-18T02:20:38.059Z,95205
2023-08-18T02:24:03.225Z,95213
2023-08-18T02:27:28.552Z,95218
2023-08-18T02:30:53.588Z,95221
2023-08-18T02:34:18.758Z,95212
2023-08-18T02:37:43.966Z,95214
2023-08-18T02:41:09.095Z,95218
2023-08-18T02:44:34.324Z,95219
2023-08-18T02:47:59.464Z,95215
2023-08-18T02:51:24.649Z,95213
2023-08-18T02:54:49.858Z,95214
2023-08-18T02:58:15.023Z,95218
2023-08-18T03:01:40.251Z,95204
2023-08-18T03:05:05.383Z,95208
2023-08-18T03:08:30.556Z,95209
2023-08-18T03:11:55.750Z,95212
2023-08-18T03:15:20.914Z,95213
2023-08-18T03:18:46.095Z,95208
2023-08-18T03:22:11.276Z,95214
2023-08-18T03:25:36.599Z,95210
2023-08-18T03:29:01.657Z,95205
2023-08-18T03:32:26.846Z,95206
2023-08-18T03:35:51.991Z,95204
2023-08-18T03:39:17.161Z,95211
2023-08-18T03:42:42.330Z,95212
2023-08-18T03:46:07.540Z,95211
2023-08-18T03:49:32.680Z,95219
2023-08-18T03:52:57.849Z,95215
2023-08-18T03:56:23.158Z,95214
2023-08-18T03:59:48.340Z,95212
2023-08-18T04:03:13.623Z,95214
2023-08-18T04:06:38.693Z,95212
2023-08-18T04:10:03.882Z,95205
2023-08-18T04:13:29.112Z,95210
2023-08-18T04:16:54.291Z,95210
2023-08-18T04:20:19.653Z,95210
2023-08-18T04:23:44.856Z,95207
2023-08-18T04:27:10.056Z,95207
2023-08-18T04:30:35.257Z,95213
2023-08-18T04:34:00.430Z,95216
2023-08-18T04:37:25.605Z,95215
2023-08-18T04:40:50.776Z,95215
2023-08-18T04:44:15.952Z,95211
2023-08-18T04:47:41.179Z,95220
2023-08-18T04:51:06.314Z,95217
2023-08-18T04:54:31.540Z,95218
2023-08-18T04:57:56.688Z,95219
2023-08-18T05:01:21.920Z,95221
2023-08-18T05:04:47.146Z,95227
2023-08-18T05:08:12.317Z,95223
2023-08-18T05:11:37.512Z,95223
2023-08-18T05:15:02.699Z,95223
2023-08-18T05:18:27.916Z,95222
2023-08-18T05:21:53.078Z,95227
2023-08-18T05:25:18.272Z,95224
2023-08-18T05:28:43.481Z,95230
2023-08-18T05:32:08.627Z,95228
2023-08-18T05:35:33.803Z,95230
2023-08-18T05:38:58.998Z,95234
2023-08-18T05:42:24.285Z,95230
2023-08-18T05:45:49.498Z,95231
2023-08-18T05:49:14.592Z,95236
2023-08-18T05:52:39.765Z,95237
2023-08-18T05:56:04.956Z,95236
2023-08-18T05:59:30.112Z,95240
2023-08-18T06:02:55.320Z,95235
2023-08-18T06:06:20.449Z,95231
2023-08-18T06:09:45.629Z,95231
2023-08-18T06:13:10.845Z,95239
2023-08-18T06:16:36.037Z,95241
2023-08-18T06:20:01.235Z,95242
2023-08-18T06:23:26.383Z,95237
2023-08-18T06:26:51.559Z,95233
2023-08-18T06:30:16.735Z,95240
2023-08-18T06:33:41.894Z,95237
2023-08-18T06:37:07.129Z,95234
2023-08-18T06:40:32.277Z,95237
2023-08-18T06:43:57.464Z,95237
2023-08-18T06:47:22.661Z,95237
2023-08-18T06:50:47.849Z,95238
2023-08-18T06:54:13.028Z,95244
2023-08-18T06:57:38.188Z,95245
2023-08-18T07:01:03.385Z,95245
2023-08-18T07:04:28.553Z,95245
2023-08-18T07:07:53.718Z,95246
2023-08-18T07:11:18.965Z,95239
2023-08-18T07:14:44.091Z,95242
2023-08-18T07:18:09.296Z,95243
2023-08-18T07:21:34.466Z,95249
2023-08-18T07:24:59.657Z,95245
2023-08-18T07:28:24.901Z,95244
2023-08-18T07:31:50.390Z,95243
2023-08-18T07:35:15.526Z,95251
2023-08-18T07:38:40.701Z,95251
2023-08-18T07:42:05.915Z,95249
2023-08-18T07:45:31.183Z,95245
2023-08-18T07:48:56.198Z,95245
2023-08-18T07:52:21.391Z,95250
2023-08-18T07:55:46.561Z,95246
2023-08-18T07:59:11.724Z,95249
2023-08-18T08:02:37.240Z,95241
2023-08-18T08:06:02.170Z,95245
2023-08-18T08:09:27.353Z,95245
2023-08-18T08:12:52.520Z,95251
2023-08-18T08:16:17.753Z,95250
2023-08-18T08:19:43.035Z,95252
2023-08-18T08:23:08.130Z,95253
2023-08-18T08:26:33.308Z,95250
2023-08-18T08:30:02.278Z,95255
2023-08-18T08:33:23.710Z,95258
2023-08-18T08:36:48.900Z,95256
2023-08-18T08:40:14.088Z,95257
2023-08-18T08:43:39.285Z,95254
2023-08-18T08:47:04.461Z,95255
2023-08-18T08:50:31.858Z,95249
2023-08-18T08:53:54.968Z,95255
2023-08-18T08:57:20.030Z,95252
2023-08-18T09:00:45.241Z,95248
2023-08-18T09:04:10.450Z,95251
2023-08-18T09:07:35.635Z,95252
2023-08-18T09:11:00.880Z,95248
2023-08-18T09:14:26.079Z,95247
2023-08-18T09:17:51.314Z,95249
2023-08-18T09:21:16.513Z,95244
2023-08-18T09:24:41.731Z,95243
2023-08-18T09:28:08.685Z,95245
2023-08-18T09:31:32.182Z,95241
2023-08-18T09:34:57.438Z,95238
2023-08-18T09:38:22.584Z,95230
2023-08-18T09:41:47.813Z,95229
2023-08-18T09:45:13.508Z,95222
2023-08-18T09:48:38.223Z,95216
2023-08-18T09:52:03.449Z,95212
2023-08-18T09:55:28.606Z,95215
2023-08-18T09:58:53.819Z,95212
2023-08-18T10:02:19.038Z,95218
2023-08-18T10:05:44.159Z,95216
2023-08-18T10:09:09.331Z,95209
2023-08-18T10:12:34.515Z,95214
2023-08-18T10:15:59.735Z,95212
2023-08-18T10:19:24.902Z,95203
2023-08-18T10:22:50.029Z,95202
2023-08-18T10:26:15.210Z,95198
2023-08-18T10:29:40.416Z,95192
2023-08-18T10:33:05.681Z,95192
2023-08-18T10:36:30.866Z,95196
2023-08-18T10:39:56.028Z,95190
2023-08-18T10:43:21.258Z,95189
2023-08-18T10:46:46.438Z,95190
2023-08-18T10:50:11.614Z,95187
2023-08-18T10:53:36.859Z,95186
2023-08-18T10:57:02.041Z,95184
2023-08-18T11:00:27.195Z,95181
2023-08-18T11:03:52.378Z,95178
2023-08-18T11:07:17.580Z,95177
2023-08-18T11:10:42.832Z,95176
2023-08-18T11:14:08.033Z,95177
2023-08-18T11:17:33.218Z,95182
2023-08-18T11:20:58.442Z,95178
2023-08-18T11:24:23.634Z,95183
2023-08-18T11:27:48.880Z,95181
2023-08-18T11:31:14.131Z,95180
2023-08-18T11:34:39.306Z,95178
2023-08-18T11:38:04.552Z,95184
2023-08-18T11:41:29.752Z,95178
2023-08-18T11:44:55.025Z,95179
2023-08-18T11:48:20.245Z,95178
2023-08-18T11:51:46.510Z,95175
2023-08-18T11:55:10.657Z,95175
2023-08-18T11:58:35.886Z,95167
2023-08-18T12:02:01.135Z,95174
2023-08-18T12:05:26.329Z,95174
2023-08-18T12:08:51.575Z,95173
2023-08-18T12:12:16.803Z,95177
2023-08-18T12:15:42.132Z,95173
2023-08-18T12:19:07.232Z,95164
2023-08-18T12:22:32.594Z,95162
2023-08-18T12:25:57.615Z,95161
2023-08-18T12:29:22.805Z,95151
2023-08-18T12:32:48.051Z,95152
2023-08-18T12:36:13.225Z,95150
2023-08-18T12:39:38.418Z,95150
2023-08-18T12:43:03.639Z,95148
2023-08-18T12:46:28.911Z,95147
2023-08-18T12:49:54.058Z,95143
2023-08-18T12:53:19.305Z,95149
2023-08-18T12:56:44.478Z,95147
2023-08-18T13:00:09.677Z,95146
2023-08-18T13:03:34.922Z,95142
2023-08-18T13:07:00.142Z,95137
2023-08-18T13:10:25.349Z,95135
2023-08-18T13:13:50.523Z,95137
2023-08-18T13:17:15.752Z,95135
2023-08-18T13:20:40.996Z,95130
2023-08-18T13:24:06.381Z,95130
2023-08-18T13:27:31.357Z,95127
2023-08-18T13:30:56.544Z,95126
2023-08-18T13:34:21.705Z,95122
2023-08-18T13:37:46.890Z,95120
2023-08-18T13:41:12.093Z,95117
2023-08-18T13:44:37.323Z,95119
2023-08-18T13:48:03.044Z,95113
2023-08-18T13:51:27.676Z,95111
2023-08-18T13:54:52.887Z,95115
2023-08-18T13:58:18.096Z,95117
2023-08-18T14:01:43.339Z,95114
2023-08-18T14:05:08.487Z,95112
2023-08-18T14:08:33.699Z,95113
2023-08-18T14:11:58.900Z,95111
2023-08-18T14:15:24.089Z,95108
2023-08-18T14:18:49.344Z,95111
2023-08-18T14:22:14.509Z,95110
2023-08-18T14:25:39.756Z,95102
2023-08-18T14:29:04.946Z,95106
2023-08-18T14:32:30.312Z,95103
2023-08-18T14:35:55.384Z,95106
2023-08-18T14:39:20.561Z,95109
2023-08-18T14:42:45.766Z,95104
2023-08-18T14:46:11.056Z,95111
2023-08-18T14:49:36.175Z,95110
2023-08-18T14:53:01.440Z,95105
2023-08-18T14:56:26.618Z,95106
2023-08-18T14:59:51.842Z,95101
2023-08-18T15:03:17.105Z,95097
2023-08-18T15:06:42.284Z,95102
2023-08-18T15:10:07.506Z,95102
2023-08-18T15:49:11.942Z,95098
2023-08-18T15:52:37.145Z,95093
2023-08-18T15:56:02.431Z,95097
2023-08-18T15:59:27.667Z,95097
2023-08-18T16:02:52.968Z,95096
2023-08-18T16:06:18.145Z,95095
2023-08-18T16:09:43.342Z,95096
2023-08-18T16:13:08.551Z,95092
2023-08-18T16:16:33.785Z,95090
2023-08-18T16:19:58.919Z,95089
2023-08-18T16:23:24.176Z,95084
2023-08-18T16:26:49.369Z,95082
2023-08-18T16:30:14.575Z,95081
2023-08-18T16:33:39.773Z,95077
2023-08-18T16:37:04.980Z,95072
2023-08-18T16:40:30.205Z,95067
2023-08-18T16:43:55.379Z,95069
2023-08-18T16:47:20.567Z,95064
2023-08-18T16:50:45.794Z,95066
2023-08-18T16:54:10.989Z,95061
2023-08-18T16:57:36.221Z,95056
2023-08-18T17:01:01.403Z,95057
2023-08-18T17:04:26.599Z,95057
2023-08-18T17:07:51.780Z,95067
2023-08-18T17:11:16.977Z,95067
2023-08-18T17:14:42.200Z,95066
2023-08-18T17:18:07.423Z,95068
2023-08-18T17:21:32.611Z,95069
2023-08-18T17:24:57.782Z,95071
2023-08-18T17:28:23.014Z,95076
2023-08-18T17:31:48.239Z,95076
2023-08-18T17:35:13.418Z,95080
2023-08-18T17:38:38.632Z,95083
2023-08-18T17:42:03.824Z,95086
2023-08-18T17:45:29.046Z,95086
2023-08-18T17:48:54.277Z,95092
2023-08-18T17:52:19.436Z,95092
2023-08-18T17:55:44.649Z,95096
2023-08-18T17:59:09.865Z,95092
2023-08-18T18:02:35.097Z,95094
2023-08-18T18:06:00.349Z,95101
2023-08-18T18:09:25.527Z,95108
2023-08-18T18:12:50.734Z,95116
2023-08-18T18:16:15.975Z,95124
2023-08-18T18:19:41.145Z,95127
2023-08-18T18:23:06.369Z,95125
2023-08-18T18:26:31.554Z,95127
2023-08-18T18:29:56.740Z,95137
2023-08-18T18:33:21.933Z,95138
2023-08-18T18:36:47.132Z,95137
2023-08-18T18:40:12.365Z,95144
2023-08-18T18:43:37.532Z,95146
2023-08-18T18:47:02.724Z,95148
2023-08-18T18:50:27.921Z,95156
2023-08-18T18:53:53.115Z,95153
2023-08-18T18:57:18.329Z,95151
2023-08-18T19:00:43.547Z,95154
2023-08-18T19:04:08.753Z,95165
2023-08-18T19:07:34.137Z,95164
2023-08-18T19:10:59.177Z,95172
2023-08-18T19:14:24.421Z,95174
2023-08-18T19:17:49.659Z,95174
2023-08-18T19:21:14.767Z,95177
2023-08-18T19:24:41.755Z,95181
2023-08-18T19:28:05.212Z,95180
2023-08-18T19:31:30.507Z,95181
2023-08-18T19:34:55.608Z,95176
2023-08-18T19:38:20.809Z,95172
2023-08-18T19:41:46.301Z,95173
2023-08-18T19:45:11.197Z,95172
2023-08-18T19:48:36.420Z,95173
2023-08-18T19:52:01.589Z,95174
2023-08-18T19:55:26.790Z,95179
2023-08-18T19:58:51.994Z,95180
2023-08-18T20:02:17.169Z,95178
2023-08-18T20:05:42.398Z,95176
2023-08-18T20:09:07.602Z,95176
2023-08-18T20:12:32.926Z,95176
2023-08-18T20:15:57.963Z,95173
2023-08-18T20:19:23.177Z,95167
2023-08-18T20:22:48.400Z,95170
2023-08-18T20:26:13.594Z,95179
2023-08-18T20:29:38.779Z,95176
2023-08-18T20:33:03.998Z,95179
2023-08-18T20:36:29.177Z,95180
2023-08-18T20:39:54.370Z,95179
2023-08-18T20:43:19.540Z,95186
2023-08-18T20:46:44.786Z,95190
2023-08-18T20:50:09.945Z,95183
2023-08-18T20:53:35.172Z,95183
2023-08-18T20:57:00.364Z,95187
2023-08-18T21:00:25.514Z,95188
2023-08-18T21:03:50.752Z,95186
2023-08-18T21:07:15.905Z,95185
2023-08-18T21:10:41.102Z,95184
2023-08-18T21:14:06.319Z,95183
2023-08-18T21:17:31.490Z,95182
2023-08-18T21:20:56.655Z,95177
2023-08-18T21:24:21.856Z,95178
2023-08-18T21:27:47.045Z,95176
2023-08-18T21:31:12.293Z,95176
2023-08-18T21:34:37.418Z,95182
2023-08-18T21:38:02.607Z,95177
2023-08-18T21:41:27.798Z,95182
2023-08-18T21:44:52.974Z,95190
2023-08-18T21:48:18.191Z,95186
2023-08-18T21:51:43.355Z,95185
2023-08-18T21:55:08.539Z,95179
2023-08-18T21:58:33.721Z,95185
2023-08-18T22:01:58.900Z,95185
2023-08-18T22:05:24.104Z,95179
2023-08-18T22:08:49.269Z,95178
2023-08-18T22:12:14.457Z,95183
2023-08-18T22:15:39.704Z,95179
2023-08-18T22:19:04.832Z,95186
2023-08-18T22:22:34.203Z,95182
2023-08-18T22:25:55.192Z,95182
2023-08-18T22:29:20.366Z,95185
2023-08-18T22:32:45.567Z,95181
2023-08-18T22:36:10.718Z,95179
2023-08-18T22:39:35.913Z,95174
2023-08-18T22:43:01.078Z,95177
2023-08-18T22:46:26.273Z,95178
2023-08-18T22:49:51.456Z,95172
2023-08-18T22:53:16.643Z,95180
2023-08-18T22:56:41.856Z,95184
2023-08-18T23:00:07.148Z,95186
2023-08-18T23:03:32.221Z,95186
2023-08-18T23:06:57.380Z,95190
2023-08-18T23:10:22.568Z,95185
2023-08-18T23:13:47.802Z,95178
2023-08-18T23:17:12.961Z,95176
2023-08-18T23:20:38.151Z,95184
2023-08-18T23:24:03.360Z,95178
2023-08-18T23:27:28.735Z,95183
2023-08-18T23:30:53.770Z,95181
2023-08-18T23:34:18.912Z,95172
2023-08-18T23:37:44.118Z,95174
2023-08-18T23:41:09.324Z,95168
2023-08-18T23:44:34.495Z,95170
2023-08-18T23:47:59.733Z,95165
2023-08-18T23:51:24.913Z,95163
2023-08-18T23:54:50.123Z,95161
2023-08-18T23:58:15.280Z,95165
